LEVC/VLC METAR and TAF weather

Enter ICAO airport designator
Station Type Date Time Source
LEVC METAR 2021/05/13 06:30 UTC NOAA

LEVC 130630Z 27006KT CAVOK 17/08 Q1016 NOSIG


Station Type Date Time Source
LEVC Decoded METAR 2021/05/13 06:30 UTC NOAA

Valencia / Aeropuerto, Spain (LEVC) 39-30N 000-28W 62M
May 13, 2021 - 02:30 AM EDT / 2021.05.13 0630 UTC
Wind: from the W (270 degrees) at 7 MPH (6 KT):0
Visibility: greater than 7 mile(s):0
Temperature: 62 F (17 C)
Dew Point: 46 F (8 C)
Relative Humidity: 55%
Pressure (altimeter): 30.00 in. Hg (1016 hPa)
ob: LEVC 130630Z 27006KT CAVOK 17/08 Q1016 NOSIG
cycle: 6

Station Type Date Time Source
LEVC TAF 2021/05/13 06:27 UTC NOAA

TAF LEVC 130500Z 1306/1406 VRB04KT CAVOK TX28/1313Z TN12/1306Z
BECMG 1309/1311 25013KT

Example: see airport list